Ana Sayfa
METAR-TAF:

METAR-TAF

Havaalanları :

Karlstad, İsveç

Enlem: 59-26-41N, Boylam: 013-20-15E, yükseklik: 107 m

Güncel hava durumu gözlemi

Rapor saat 03:20 UTC de 31 dakika önce yapıldı.
Rüzgar kuzeydoğudan 3 kt
Sıcaklık -9°C
Nem 100%
Basınç 1000 hPa
Görüş mesafesi 10 km veya daha fazla

METAR: ESOK 280320Z AUTO 04003KT 9999 OVC057/// M09/M09 Q1000

Saat: 04:51 (03:51 UTC)

Tahmin

Rapor saat 14:30 UTC de 13 saat ve 21 dakika önce yapıldı.
Ayın 27'si saat 15 UTC'den ayın 27'si saat 19 UTC'ye kadar geçerli Tahmin
Rüzgar kuzey/kuzeybatıdan 5 kt
Görüş mesafesi 10 km veya daha fazla
1500 m altında bulut yok ve kümülonimbus yok

TAF: ESOK 271430Z 2715/2719 34005KT CAVOK

4.000'den fazla havaalanı için hava durumu gözlemleri ve tahminleri (METAR ve TAF raporları).

Kullanılabilir istasyonlar harita üzerinde sarı ve kırmızı noktalarla gösterilir.

İstasyonun adını görmek için fareyi noktanın üzerinde gezdirin.

Sonrasında hava gözlem ve tahminlerini görmek için tıklayın.

Haritayı değiştirmek için: yaklaştırmak için siyah artı işaretli yeşil düğmeye ve uzaklaştırmak için de eksi işaretli düğmeye hızla tıklayın; bitişik haritalar için yeşil okları kullanın.


METAR-TAF: